sensor_id;sensor_type;location;lat;lon;timestamp;P1;durP1;ratioP1;P2;durP2;ratioP2
12921;SDS011;6528;48.086;16.282;2022-09-03T00:02:37;2.60;;;2.40;;
12921;SDS011;6528;48.086;16.282;2022-09-03T00:07:38;4.10;;;2.93;;
12921;SDS011;6528;48.086;16.282;2022-09-03T00:10:27;4.47;;;2.70;;
12921;SDS011;6528;48.086;16.282;2022-09-03T00:13:13;5.17;;;2.80;;
12921;SDS011;6528;48.086;16.282;2022-09-03T00:15:45;3.27;;;2.93;;
12921;SDS011;6528;48.086;16.282;2022-09-03T00:18:15;2.97;;;2.70;;
12921;SDS011;6528;48.086;16.282;2022-09-03T00:23:20;3.10;;;2.70;;
12921;SDS011;6528;48.086;16.282;2022-09-03T00:25:58;3.13;;;2.60;;
12921;SDS011;6528;48.086;16.282;2022-09-03T00:28:42;3.40;;;2.67;;
12921;SDS011;6528;48.086;16.282;2022-09-03T00:31:18;2.60;;;2.47;;
12921;SDS011;6528;48.086;16.282;2022-09-03T00:33:54;3.67;;;2.40;;
12921;SDS011;6528;48.086;16.282;2022-09-03T00:36:35;3.37;;;2.90;;
12921;SDS011;6528;48.086;16.282;2022-09-03T00:39:08;6.53;;;2.80;;
12921;SDS011;6528;48.086;16.282;2022-09-03T00:44:49;2.93;;;2.50;;
12921;SDS011;6528;48.086;16.282;2022-09-03T00:47:28;2.90;;;2.70;;
12921;SDS011;6528;48.086;16.282;2022-09-03T00:50:35;3.80;;;3.27;;
12921;SDS011;6528;48.086;16.282;2022-09-03T00:53:17;2.93;;;2.20;;
12921;SDS011;6528;48.086;16.282;2022-09-03T00:59:26;2.33;;;2.23;;
12921;SDS011;6528;48.086;16.282;2022-09-03T01:07:21;5.23;;;2.70;;
12921;SDS011;6528;48.086;16.282;2022-09-03T01:12:55;4.40;;;2.23;;
12921;SDS011;6528;48.086;16.282;2022-09-03T01:18:24;6.33;;;2.57;;
12921;SDS011;6528;48.086;16.282;2022-09-03T01:26:45;4.13;;;2.83;;
12921;SDS011;6528;48.086;16.282;2022-09-03T01:29:27;6.30;;;2.50;;
12921;SDS011;6528;48.086;16.282;2022-09-03T01:32:11;3.23;;;3.03;;
12921;SDS011;6528;48.086;16.282;2022-09-03T01:40:29;3.53;;;2.83;;
12921;SDS011;6528;48.086;16.282;2022-09-03T01:45:41;3.47;;;3.03;;
12921;SDS011;6528;48.086;16.282;2022-09-03T01:51:28;2.63;;;2.43;;
12921;SDS011;6528;48.086;16.282;2022-09-03T01:54:02;2.50;;;2.30;;
12921;SDS011;6528;48.086;16.282;2022-09-03T02:00:06;3.30;;;3.07;;
12921;SDS011;6528;48.086;16.282;2022-09-03T02:02:40;2.80;;;2.60;;
12921;SDS011;6528;48.086;16.282;2022-09-03T02:05:10;2.83;;;2.23;;
12921;SDS011;6528;48.086;16.282;2022-09-03T02:07:39;3.13;;;2.87;;
12921;SDS011;6528;48.086;16.282;2022-09-03T02:10:10;5.03;;;2.57;;
12921;SDS011;6528;48.086;16.282;2022-09-03T02:12:53;2.67;;;2.47;;
12921;SDS011;6528;48.086;16.282;2022-09-03T02:15:27;2.90;;;2.70;;
12921;SDS011;6528;48.086;16.282;2022-09-03T02:17:56;3.00;;;2.80;;
12921;SDS011;6528;48.086;16.282;2022-09-03T02:20:27;3.40;;;2.40;;
12921;SDS011;6528;48.086;16.282;2022-09-03T02:22:55;2.83;;;2.60;;
12921;SDS011;6528;48.086;16.282;2022-09-03T02:25:25;2.20;;;2.07;;
12921;SDS011;6528;48.086;16.282;2022-09-03T02:27:57;2.80;;;2.60;;
12921;SDS011;6528;48.086;16.282;2022-09-03T02:30:26;2.60;;;2.50;;
12921;SDS011;6528;48.086;16.282;2022-09-03T02:32:53;4.53;;;2.80;;
12921;SDS011;6528;48.086;16.282;2022-09-03T02:35:19;2.80;;;2.60;;
12921;SDS011;6528;48.086;16.282;2022-09-03T02:37:46;2.50;;;2.30;;
12921;SDS011;6528;48.086;16.282;2022-09-03T02:40:13;2.53;;;2.33;;
12921;SDS011;6528;48.086;16.282;2022-09-03T02:42:40;3.43;;;3.13;;
12921;SDS011;6528;48.086;16.282;2022-09-03T02:47:54;3.80;;;2.83;;
12921;SDS011;6528;48.086;16.282;2022-09-03T02:50:24;3.03;;;2.83;;
12921;SDS011;6528;48.086;16.282;2022-09-03T02:52:51;3.40;;;3.20;;
12921;SDS011;6528;48.086;16.282;2022-09-03T02:55:18;3.10;;;2.80;;
12921;SDS011;6528;48.086;16.282;2022-09-03T02:57:45;6.70;;;2.90;;
12921;SDS011;6528;48.086;16.282;2022-09-03T03:00:13;3.30;;;3.00;;
12921;SDS011;6528;48.086;16.282;2022-09-03T03:02:40;4.03;;;2.67;;
12921;SDS011;6528;48.086;16.282;2022-09-03T03:05:07;3.23;;;2.70;;
12921;SDS011;6528;48.086;16.282;2022-09-03T03:07:38;3.00;;;2.50;;
12921;SDS011;6528;48.086;16.282;2022-09-03T03:10:06;3.73;;;2.97;;
12921;SDS011;6528;48.086;16.282;2022-09-03T03:12:33;6.40;;;2.70;;
12921;SDS011;6528;48.086;16.282;2022-09-03T03:15:00;6.83;;;2.93;;
12921;SDS011;6528;48.086;16.282;2022-09-03T03:17:27;2.90;;;2.70;;
12921;SDS011;6528;48.086;16.282;2022-09-03T03:19:54;3.43;;;3.13;;
12921;SDS011;6528;48.086;16.282;2022-09-03T03:22:20;3.83;;;3.37;;
12921;SDS011;6528;48.086;16.282;2022-09-03T03:24:47;3.80;;;2.80;;
12921;SDS011;6528;48.086;16.282;2022-09-03T03:27:15;2.83;;;2.60;;
12921;SDS011;6528;48.086;16.282;2022-09-03T03:29:44;4.30;;;3.30;;
12921;SDS011;6528;48.086;16.282;2022-09-03T03:32:10;3.30;;;3.00;;
12921;SDS011;6528;48.086;16.282;2022-09-03T03:34:37;4.13;;;3.17;;
12921;SDS011;6528;48.086;16.282;2022-09-03T03:37:05;3.00;;;2.70;;
12921;SDS011;6528;48.086;16.282;2022-09-03T03:39:32;3.20;;;2.90;;
12921;SDS011;6528;48.086;16.282;2022-09-03T03:41:58;3.70;;;3.40;;
12921;SDS011;6528;48.086;16.282;2022-09-03T03:44:25;2.67;;;2.47;;
12921;SDS011;6528;48.086;16.282;2022-09-03T03:46:52;3.33;;;2.70;;
12921;SDS011;6528;48.086;16.282;2022-09-03T03:49:19;3.00;;;2.80;;
12921;SDS011;6528;48.086;16.282;2022-09-03T03:51:46;3.17;;;2.97;;
12921;SDS011;6528;48.086;16.282;2022-09-03T03:54:12;2.87;;;2.67;;
12921;SDS011;6528;48.086;16.282;2022-09-03T03:56:42;4.97;;;2.80;;
12921;SDS011;6528;48.086;16.282;2022-09-03T03:59:15;2.53;;;2.33;;
12921;SDS011;6528;48.086;16.282;2022-09-03T04:01:42;2.80;;;2.50;;
12921;SDS011;6528;48.086;16.282;2022-09-03T04:04:09;3.57;;;3.13;;
12921;SDS011;6528;48.086;16.282;2022-09-03T04:06:36;7.77;;;2.80;;
12921;SDS011;6528;48.086;16.282;2022-09-03T04:09:03;3.57;;;3.27;;
12921;SDS011;6528;48.086;16.282;2022-09-03T04:11:29;3.27;;;2.97;;
12921;SDS011;6528;48.086;16.282;2022-09-03T04:13:56;4.93;;;3.70;;
12921;SDS011;6528;48.086;16.282;2022-09-03T04:16:24;5.10;;;3.03;;
12921;SDS011;6528;48.086;16.282;2022-09-03T04:18:53;3.53;;;2.80;;
12921;SDS011;6528;48.086;16.282;2022-09-03T04:21:25;3.20;;;2.57;;
12921;SDS011;6528;48.086;16.282;2022-09-03T04:23:54;2.70;;;2.50;;
12921;SDS011;6528;48.086;16.282;2022-09-03T04:26:22;3.20;;;2.90;;
12921;SDS011;6528;48.086;16.282;2022-09-03T04:28:57;3.00;;;2.67;;
12921;SDS011;6528;48.086;16.282;2022-09-03T04:31:26;3.47;;;2.60;;
12921;SDS011;6528;48.086;16.282;2022-09-03T04:33:53;2.80;;;2.60;;
12921;SDS011;6528;48.086;16.282;2022-09-03T04:36:21;3.70;;;3.37;;
12921;SDS011;6528;48.086;16.282;2022-09-03T04:38:50;4.90;;;3.00;;
12921;SDS011;6528;48.086;16.282;2022-09-03T04:41:28;4.20;;;2.80;;
12921;SDS011;6528;48.086;16.282;2022-09-03T04:43:56;6.03;;;2.80;;
12921;SDS011;6528;48.086;16.282;2022-09-03T04:46:25;3.23;;;2.93;;
12921;SDS011;6528;48.086;16.282;2022-09-03T04:48:59;3.27;;;2.50;;
12921;SDS011;6528;48.086;16.282;2022-09-03T04:51:27;2.93;;;2.73;;
12921;SDS011;6528;48.086;16.282;2022-09-03T04:53:55;3.00;;;2.80;;
12921;SDS011;6528;48.086;16.282;2022-09-03T04:56:24;2.67;;;2.47;;
12921;SDS011;6528;48.086;16.282;2022-09-03T04:59:11;3.03;;;2.83;;
12921;SDS011;6528;48.086;16.282;2022-09-03T05:01:39;2.40;;;2.30;;
12921;SDS011;6528;48.086;16.282;2022-09-03T05:04:06;3.67;;;2.83;;
12921;SDS011;6528;48.086;16.282;2022-09-03T05:06:33;3.27;;;2.97;;
12921;SDS011;6528;48.086;16.282;2022-09-03T05:09:02;3.20;;;2.77;;
12921;SDS011;6528;48.086;16.282;2022-09-03T05:11:30;5.63;;;3.27;;
12921;SDS011;6528;48.086;16.282;2022-09-03T05:13:57;4.03;;;3.00;;
12921;SDS011;6528;48.086;16.282;2022-09-03T05:16:26;3.00;;;2.80;;
12921;SDS011;6528;48.086;16.282;2022-09-03T05:18:56;3.10;;;2.90;;
12921;SDS011;6528;48.086;16.282;2022-09-03T05:21:25;3.00;;;2.80;;
12921;SDS011;6528;48.086;16.282;2022-09-03T05:23:53;3.20;;;2.70;;
12921;SDS011;6528;48.086;16.282;2022-09-03T05:26:22;4.00;;;2.83;;
12921;SDS011;6528;48.086;16.282;2022-09-03T05:28:54;4.67;;;2.93;;
12921;SDS011;6528;48.086;16.282;2022-09-03T05:31:23;4.97;;;2.87;;
12921;SDS011;6528;48.086;16.282;2022-09-03T05:33:56;3.27;;;2.97;;
12921;SDS011;6528;48.086;16.282;2022-09-03T05:36:25;3.00;;;2.70;;
12921;SDS011;6528;48.086;16.282;2022-09-03T05:38:54;3.43;;;2.77;;
12921;SDS011;6528;48.086;16.282;2022-09-03T05:41:23;3.70;;;3.40;;
12921;SDS011;6528;48.086;16.282;2022-09-03T05:43:52;5.90;;;3.10;;
12921;SDS011;6528;48.086;16.282;2022-09-03T05:46:28;2.97;;;2.50;;
12921;SDS011;6528;48.086;16.282;2022-09-03T05:48:59;3.27;;;2.90;;
12921;SDS011;6528;48.086;16.282;2022-09-03T05:51:28;3.40;;;3.10;;
12921;SDS011;6528;48.086;16.282;2022-09-03T05:53:56;2.80;;;2.60;;
12921;SDS011;6528;48.086;16.282;2022-09-03T05:56:23;3.17;;;2.97;;
12921;SDS011;6528;48.086;16.282;2022-09-03T05:58:53;3.70;;;3.40;;
12921;SDS011;6528;48.086;16.282;2022-09-03T06:01:23;5.37;;;3.60;;
12921;SDS011;6528;48.086;16.282;2022-09-03T06:03:52;4.93;;;3.50;;
12921;SDS011;6528;48.086;16.282;2022-09-03T06:06:21;4.00;;;3.60;;
12921;SDS011;6528;48.086;16.282;2022-09-03T06:08:55;3.90;;;3.57;;
12921;SDS011;6528;48.086;16.282;2022-09-03T06:11:27;7.07;;;3.70;;
12921;SDS011;6528;48.086;16.282;2022-09-03T06:13:56;4.17;;;3.87;;
12921;SDS011;6528;48.086;16.282;2022-09-03T06:16:26;4.23;;;3.83;;
12921;SDS011;6528;48.086;16.282;2022-09-03T06:18:57;4.63;;;4.23;;
12921;SDS011;6528;48.086;16.282;2022-09-03T06:21:25;4.93;;;3.70;;
12921;SDS011;6528;48.086;16.282;2022-09-03T06:23:53;5.63;;;3.93;;
12921;SDS011;6528;48.086;16.282;2022-09-03T06:26:25;4.50;;;4.20;;
12921;SDS011;6528;48.086;16.282;2022-09-03T06:28:54;8.43;;;4.10;;
12921;SDS011;6528;48.086;16.282;2022-09-03T06:31:22;4.27;;;3.97;;
12921;SDS011;6528;48.086;16.282;2022-09-03T06:33:50;4.30;;;3.80;;
12921;SDS011;6528;48.086;16.282;2022-09-03T06:36:19;3.60;;;3.20;;
12921;SDS011;6528;48.086;16.282;2022-09-03T06:38:50;4.63;;;3.37;;
12921;SDS011;6528;48.086;16.282;2022-09-03T06:41:18;5.30;;;3.70;;
12921;SDS011;6528;48.086;16.282;2022-09-03T06:44:06;3.70;;;3.50;;
12921;SDS011;6528;48.086;16.282;2022-09-03T06:46:37;6.10;;;4.13;;
12921;SDS011;6528;48.086;16.282;2022-09-03T06:49:07;5.73;;;3.87;;
12921;SDS011;6528;48.086;16.282;2022-09-03T06:51:36;10.83;;;3.07;;
12921;SDS011;6528;48.086;16.282;2022-09-03T06:54:04;3.50;;;3.20;;
12921;SDS011;6528;48.086;16.282;2022-09-03T06:56:33;4.40;;;4.00;;
12921;SDS011;6528;48.086;16.282;2022-09-03T06:59:07;4.10;;;3.80;;
12921;SDS011;6528;48.086;16.282;2022-09-03T07:01:38;3.53;;;3.23;;
12921;SDS011;6528;48.086;16.282;2022-09-03T07:04:10;5.30;;;3.90;;
12921;SDS011;6528;48.086;16.282;2022-09-03T07:06:38;3.70;;;3.30;;
12921;SDS011;6528;48.086;16.282;2022-09-03T07:09:08;3.27;;;3.00;;
12921;SDS011;6528;48.086;16.282;2022-09-03T07:11:36;3.80;;;3.40;;
12921;SDS011;6528;48.086;16.282;2022-09-03T07:14:12;4.20;;;3.70;;
12921;SDS011;6528;48.086;16.282;2022-09-03T07:16:40;4.10;;;3.80;;
12921;SDS011;6528;48.086;16.282;2022-09-03T07:19:08;5.00;;;3.33;;
12921;SDS011;6528;48.086;16.282;2022-09-03T07:21:35;3.70;;;3.40;;
12921;SDS011;6528;48.086;16.282;2022-09-03T07:24:02;3.43;;;3.10;;
12921;SDS011;6528;48.086;16.282;2022-09-03T07:26:31;5.40;;;3.50;;
12921;SDS011;6528;48.086;16.282;2022-09-03T07:29:03;3.90;;;3.57;;
12921;SDS011;6528;48.086;16.282;2022-09-03T07:31:33;6.00;;;3.30;;
12921;SDS011;6528;48.086;16.282;2022-09-03T07:34:03;3.10;;;2.40;;
12921;SDS011;6528;48.086;16.282;2022-09-03T07:36:36;3.53;;;2.73;;
12921;SDS011;6528;48.086;16.282;2022-09-03T07:39:09;2.37;;;2.17;;
12921;SDS011;6528;48.086;16.282;2022-09-03T07:41:37;2.37;;;2.10;;
12921;SDS011;6528;48.086;16.282;2022-09-03T07:44:08;2.43;;;1.70;;
12921;SDS011;6528;48.086;16.282;2022-09-03T07:46:36;1.83;;;1.73;;
12921;SDS011;6528;48.086;16.282;2022-09-03T07:49:03;2.00;;;1.80;;
12921;SDS011;6528;48.086;16.282;2022-09-03T07:51:32;2.03;;;1.83;;
12921;SDS011;6528;48.086;16.282;2022-09-03T07:54:02;2.50;;;2.28;;
12921;SDS011;6528;48.086;16.282;2022-09-03T07:56:32;2.22;;;2.03;;
12921;SDS011;6528;48.086;16.282;2022-09-03T07:59:01;2.63;;;1.98;;
12921;SDS011;6528;48.086;16.282;2022-09-03T08:01:28;1.95;;;1.85;;
12921;SDS011;6528;48.086;16.282;2022-09-03T08:03:58;4.82;;;2.55;;
12921;SDS011;6528;48.086;16.282;2022-09-03T08:06:26;2.20;;;1.70;;
12921;SDS011;6528;48.086;16.282;2022-09-03T08:08:57;2.08;;;1.60;;
12921;SDS011;6528;48.086;16.282;2022-09-03T08:11:32;2.20;;;2.03;;
12921;SDS011;6528;48.086;16.282;2022-09-03T08:14:02;1.90;;;1.67;;
12921;SDS011;6528;48.086;16.282;2022-09-03T08:16:33;2.00;;;1.90;;
12921;SDS011;6528;48.086;16.282;2022-09-03T08:19:00;2.70;;;1.88;;
12921;SDS011;6528;48.086;16.282;2022-09-03T08:21:27;2.65;;;1.73;;
12921;SDS011;6528;48.086;16.282;2022-09-03T08:23:55;3.38;;;1.77;;
12921;SDS011;6528;48.086;16.282;2022-09-03T08:26:29;1.88;;;1.77;;
12921;SDS011;6528;48.086;16.282;2022-09-03T08:28:57;4.43;;;2.88;;
12921;SDS011;6528;48.086;16.282;2022-09-03T08:31:25;2.75;;;1.85;;
12921;SDS011;6528;48.086;16.282;2022-09-03T08:33:54;2.80;;;1.77;;
12921;SDS011;6528;48.086;16.282;2022-09-03T08:36:25;2.42;;;2.10;;
12921;SDS011;6528;48.086;16.282;2022-09-03T08:38:53;1.75;;;1.65;;
12921;SDS011;6528;48.086;16.282;2022-09-03T08:44:19;2.42;;;1.60;;
12921;SDS011;6528;48.086;16.282;2022-09-03T08:47:09;4.20;;;1.90;;
12921;SDS011;6528;48.086;16.282;2022-09-03T08:52:28;2.30;;;1.90;;
12921;SDS011;6528;48.086;16.282;2022-09-03T08:55:01;2.72;;;2.17;;
12921;SDS011;6528;48.086;16.282;2022-09-03T08:57:40;4.03;;;1.83;;
12921;SDS011;6528;48.086;16.282;2022-09-03T09:00:13;2.20;;;1.88;;
12921;SDS011;6528;48.086;16.282;2022-09-03T09:10:44;1.95;;;1.75;;
12921;SDS011;6528;48.086;16.282;2022-09-03T09:21:06;2.38;;;2.03;;
12921;SDS011;6528;48.086;16.282;2022-09-03T09:23:39;2.08;;;1.98;;
12921;SDS011;6528;48.086;16.282;2022-09-03T09:26:12;2.55;;;2.28;;
12921;SDS011;6528;48.086;16.282;2022-09-03T09:28:45;2.22;;;2.10;;
12921;SDS011;6528;48.086;16.282;2022-09-03T09:31:16;3.70;;;1.80;;
12921;SDS011;6528;48.086;16.282;2022-09-03T09:33:46;2.67;;;1.80;;
12921;SDS011;6528;48.086;16.282;2022-09-03T09:36:15;5.40;;;1.95;;
12921;SDS011;6528;48.086;16.282;2022-09-03T09:38:44;4.82;;;2.03;;
12921;SDS011;6528;48.086;16.282;2022-09-03T09:41:17;3.20;;;1.40;;
12921;SDS011;6528;48.086;16.282;2022-09-03T09:43:45;3.00;;;2.30;;
12921;SDS011;6528;48.086;16.282;2022-09-03T09:46:19;2.22;;;2.03;;
12921;SDS011;6528;48.086;16.282;2022-09-03T09:48:48;2.30;;;2.10;;
12921;SDS011;6528;48.086;16.282;2022-09-03T09:51:20;6.40;;;1.98;;
12921;SDS011;6528;48.086;16.282;2022-09-03T09:56:42;2.95;;;1.58;;
12921;SDS011;6528;48.086;16.282;2022-09-03T09:59:10;2.38;;;2.17;;
12921;SDS011;6528;48.086;16.282;2022-09-03T10:01:39;2.03;;;1.73;;
12921;SDS011;6528;48.086;16.282;2022-09-03T10:04:12;1.58;;;1.48;;
12921;SDS011;6528;48.086;16.282;2022-09-03T10:06:55;1.98;;;1.88;;
12921;SDS011;6528;48.086;16.282;2022-09-03T10:09:27;1.80;;;1.70;;
12921;SDS011;6528;48.086;16.282;2022-09-03T10:14:29;4.55;;;1.75;;
12921;SDS011;6528;48.086;16.282;2022-09-03T10:17:48;1.60;;;1.50;;
12921;SDS011;6528;48.086;16.282;2022-09-03T10:20:03;1.70;;;1.60;;
12921;SDS011;6528;48.086;16.282;2022-09-03T10:22:52;1.80;;;1.70;;
12921;SDS011;6528;48.086;16.282;2022-09-03T10:25:24;2.95;;;2.13;;
12921;SDS011;6528;48.086;16.282;2022-09-03T10:27:58;2.60;;;2.17;;
12921;SDS011;6528;48.086;16.282;2022-09-03T10:30:27;2.00;;;1.60;;
12921;SDS011;6528;48.086;16.282;2022-09-03T10:40:39;2.80;;;2.60;;
12921;SDS011;6528;48.086;16.282;2022-09-03T10:45:52;3.03;;;2.53;;
12921;SDS011;6528;48.086;16.282;2022-09-03T10:51:32;2.07;;;1.90;;
12921;SDS011;6528;48.086;16.282;2022-09-03T11:04:50;2.83;;;2.63;;
12921;SDS011;6528;48.086;16.282;2022-09-03T11:07:23;3.17;;;2.27;;
12921;SDS011;6528;48.086;16.282;2022-09-03T11:12:34;2.40;;;2.20;;
12921;SDS011;6528;48.086;16.282;2022-09-03T11:15:10;3.83;;;2.60;;
12921;SDS011;6528;48.086;16.282;2022-09-03T11:17:45;2.90;;;2.70;;
12921;SDS011;6528;48.086;16.282;2022-09-03T11:20:16;2.87;;;2.07;;
12921;SDS011;6528;48.086;16.282;2022-09-03T11:22:45;3.80;;;2.50;;
12921;SDS011;6528;48.086;16.282;2022-09-03T11:25:14;3.77;;;2.27;;
12921;SDS011;6528;48.086;16.282;2022-09-03T11:30:30;2.60;;;2.03;;
12921;SDS011;6528;48.086;16.282;2022-09-03T11:33:12;4.17;;;2.80;;
12921;SDS011;6528;48.086;16.282;2022-09-03T11:35:40;2.50;;;2.30;;
12921;SDS011;6528;48.086;16.282;2022-09-03T11:40:52;4.50;;;2.50;;
12921;SDS011;6528;48.086;16.282;2022-09-03T11:46:04;2.57;;;2.20;;
12921;SDS011;6528;48.086;16.282;2022-09-03T11:48:38;2.00;;;1.90;;
12921;SDS011;6528;48.086;16.282;2022-09-03T11:56:40;2.57;;;2.00;;
12921;SDS011;6528;48.086;16.282;2022-09-03T11:59:15;3.27;;;2.40;;
12921;SDS011;6528;48.086;16.282;2022-09-03T12:02:04;2.50;;;2.30;;
12921;SDS011;6528;48.086;16.282;2022-09-03T12:04:46;2.50;;;2.30;;
12921;SDS011;6528;48.086;16.282;2022-09-03T12:12:38;2.20;;;2.10;;
12921;SDS011;6528;48.086;16.282;2022-09-03T12:17:57;5.90;;;3.33;;
12921;SDS011;6528;48.086;16.282;2022-09-03T12:20:43;3.53;;;2.37;;
12921;SDS011;6528;48.086;16.282;2022-09-03T12:23:12;3.00;;;2.50;;
12921;SDS011;6528;48.086;16.282;2022-09-03T12:25:43;2.53;;;2.13;;
12921;SDS011;6528;48.086;16.282;2022-09-03T12:28:16;4.40;;;2.57;;
12921;SDS011;6528;48.086;16.282;2022-09-03T12:30:46;3.60;;;2.30;;
12921;SDS011;6528;48.086;16.282;2022-09-03T12:33:17;2.40;;;2.30;;
12921;SDS011;6528;48.086;16.282;2022-09-03T12:35:54;7.27;;;2.40;;
12921;SDS011;6528;48.086;16.282;2022-09-03T12:38:25;3.70;;;2.37;;
12921;SDS011;6528;48.086;16.282;2022-09-03T12:40:52;2.60;;;2.03;;
12921;SDS011;6528;48.086;16.282;2022-09-03T12:43:40;2.53;;;2.20;;
12921;SDS011;6528;48.086;16.282;2022-09-03T12:46:14;6.83;;;2.40;;
12921;SDS011;6528;48.086;16.282;2022-09-03T12:49:02;3.93;;;2.20;;
12921;SDS011;6528;48.086;16.282;2022-09-03T12:52:00;3.90;;;2.40;;
12921;SDS011;6528;48.086;16.282;2022-09-03T12:54:31;4.83;;;2.53;;
12921;SDS011;6528;48.086;16.282;2022-09-03T12:56:59;2.40;;;2.20;;
12921;SDS011;6528;48.086;16.282;2022-09-03T12:59:27;3.07;;;2.40;;
12921;SDS011;6528;48.086;16.282;2022-09-03T13:01:59;5.00;;;2.30;;
12921;SDS011;6528;48.086;16.282;2022-09-03T13:04:30;3.10;;;2.50;;
12921;SDS011;6528;48.086;16.282;2022-09-03T13:07:00;3.13;;;2.47;;
12921;SDS011;6528;48.086;16.282;2022-09-03T13:09:32;3.47;;;2.13;;
12921;SDS011;6528;48.086;16.282;2022-09-03T13:11:59;2.83;;;2.63;;
12921;SDS011;6528;48.086;16.282;2022-09-03T13:14:41;2.40;;;2.20;;
12921;SDS011;6528;48.086;16.282;2022-09-03T13:30:20;1.87;;;1.77;;
12921;SDS011;6528;48.086;16.282;2022-09-03T13:35:46;2.17;;;1.97;;
12921;SDS011;6528;48.086;16.282;2022-09-03T13:38:23;2.27;;;2.10;;
12921;SDS011;6528;48.086;16.282;2022-09-03T13:40:55;2.70;;;1.80;;
12921;SDS011;6528;48.086;16.282;2022-09-03T13:46:07;3.30;;;2.00;;
12921;SDS011;6528;48.086;16.282;2022-09-03T13:48:46;3.27;;;2.33;;
12921;SDS011;6528;48.086;16.282;2022-09-03T13:54:21;2.83;;;2.57;;
12921;SDS011;6528;48.086;16.282;2022-09-03T13:57:27;3.40;;;2.30;;
12921;SDS011;6528;48.086;16.282;2022-09-03T14:00:04;2.30;;;2.00;;
12921;SDS011;6528;48.086;16.282;2022-09-03T14:18:55;4.20;;;2.97;;
12921;SDS011;6528;48.086;16.282;2022-09-03T14:21:41;1.83;;;1.70;;
12921;SDS011;6528;48.086;16.282;2022-09-03T14:24:16;2.90;;;2.23;;
12921;SDS011;6528;48.086;16.282;2022-09-03T14:26:49;2.47;;;2.33;;
12921;SDS011;6528;48.086;16.282;2022-09-03T14:29:21;4.80;;;2.10;;
12921;SDS011;6528;48.086;16.282;2022-09-03T14:48:47;2.23;;;2.00;;
12921;SDS011;6528;48.086;16.282;2022-09-03T14:57:19;3.33;;;1.77;;
12921;SDS011;6528;48.086;16.282;2022-09-03T15:00:05;3.23;;;2.03;;
12921;SDS011;6528;48.086;16.282;2022-09-03T15:11:45;4.00;;;2.43;;
12921;SDS011;6528;48.086;16.282;2022-09-03T15:19:57;2.20;;;2.10;;
12921;SDS011;6528;48.086;16.282;2022-09-03T15:28:32;2.30;;;2.10;;
12921;SDS011;6528;48.086;16.282;2022-09-03T15:36:50;2.13;;;1.93;;
12921;SDS011;6528;48.086;16.282;2022-09-03T15:39:20;3.37;;;2.13;;
12921;SDS011;6528;48.086;16.282;2022-09-03T15:42:00;2.03;;;1.93;;
12921;SDS011;6528;48.086;16.282;2022-09-03T15:44:44;2.93;;;2.27;;
12921;SDS011;6528;48.086;16.282;2022-09-03T15:48:04;4.07;;;2.40;;
12921;SDS011;6528;48.086;16.282;2022-09-03T15:53:18;5.17;;;2.30;;
12921;SDS011;6528;48.086;16.282;2022-09-03T16:02:02;3.90;;;2.00;;
12921;SDS011;6528;48.086;16.282;2022-09-03T16:10:11;2.40;;;2.20;;
12921;SDS011;6528;48.086;16.282;2022-09-03T16:15:43;3.20;;;2.90;;
12921;SDS011;6528;48.086;16.282;2022-09-03T16:18:31;4.67;;;2.37;;
12921;SDS011;6528;48.086;16.282;2022-09-03T16:21:34;2.57;;;2.37;;
12921;SDS011;6528;48.086;16.282;2022-09-03T16:24:16;2.33;;;2.13;;
12921;SDS011;6528;48.086;16.282;2022-09-03T16:29:37;3.23;;;2.83;;
12921;SDS011;6528;48.086;16.282;2022-09-03T16:32:19;3.73;;;2.50;;
12921;SDS011;6528;48.086;16.282;2022-09-03T16:40:54;4.70;;;3.00;;
12921;SDS011;6528;48.086;16.282;2022-09-03T17:13:32;2.60;;;2.50;;
12921;SDS011;6528;48.086;16.282;2022-09-03T17:21:49;3.80;;;3.20;;
12921;SDS011;6528;48.086;16.282;2022-09-03T17:27:43;3.67;;;3.37;;
12921;SDS011;6528;48.086;16.282;2022-09-03T17:30:15;4.07;;;3.77;;
12921;SDS011;6528;48.086;16.282;2022-09-03T17:36:24;2.97;;;2.60;;
12921;SDS011;6528;48.086;16.282;2022-09-03T17:41:39;3.10;;;2.80;;
12921;SDS011;6528;48.086;16.282;2022-09-03T17:44:13;3.00;;;2.80;;
12921;SDS011;6528;48.086;16.282;2022-09-03T17:49:45;4.00;;;3.70;;
12921;SDS011;6528;48.086;16.282;2022-09-03T17:52:24;3.63;;;3.33;;
12921;SDS011;6528;48.086;16.282;2022-09-03T17:54:56;3.67;;;3.37;;
12921;SDS011;6528;48.086;16.282;2022-09-03T17:57:31;6.43;;;3.90;;
12921;SDS011;6528;48.086;16.282;2022-09-03T18:00:21;3.20;;;2.90;;
12921;SDS011;6528;48.086;16.282;2022-09-03T18:02:53;4.53;;;4.10;;
12921;SDS011;6528;48.086;16.282;2022-09-03T18:05:49;4.63;;;4.20;;
12921;SDS011;6528;48.086;16.282;2022-09-03T18:13:57;5.47;;;4.47;;
12921;SDS011;6528;48.086;16.282;2022-09-03T18:21:55;3.83;;;3.60;;
12921;SDS011;6528;48.086;16.282;2022-09-03T18:24:46;4.20;;;3.87;;
12921;SDS011;6528;48.086;16.282;2022-09-03T18:27:46;4.67;;;4.27;;
12921;SDS011;6528;48.086;16.282;2022-09-03T18:30:34;4.00;;;3.70;;
12921;SDS011;6528;48.086;16.282;2022-09-03T18:33:22;3.87;;;3.50;;
12921;SDS011;6528;48.086;16.282;2022-09-03T18:36:10;5.03;;;4.17;;
12921;SDS011;6528;48.086;16.282;2022-09-03T18:38:57;4.30;;;4.00;;
12921;SDS011;6528;48.086;16.282;2022-09-03T19:07:54;4.70;;;4.30;;
12921;SDS011;6528;48.086;16.282;2022-09-03T19:10:49;4.33;;;3.93;;
12921;SDS011;6528;48.086;16.282;2022-09-03T19:13:38;5.60;;;4.87;;
12921;SDS011;6528;48.086;16.282;2022-09-03T19:22:36;4.30;;;3.63;;
12921;SDS011;6528;48.086;16.282;2022-09-03T19:25:25;5.60;;;5.20;;
12921;SDS011;6528;48.086;16.282;2022-09-03T19:31:13;3.90;;;3.60;;
12921;SDS011;6528;48.086;16.282;2022-09-03T19:37:17;3.90;;;3.50;;
12921;SDS011;6528;48.086;16.282;2022-09-03T19:49:02;4.47;;;4.17;;
12921;SDS011;6528;48.086;16.282;2022-09-03T19:54:52;5.43;;;3.47;;
12921;SDS011;6528;48.086;16.282;2022-09-03T19:57:40;3.57;;;3.37;;
12921;SDS011;6528;48.086;16.282;2022-09-03T20:00:27;3.97;;;3.67;;
12921;SDS011;6528;48.086;16.282;2022-09-03T20:03:13;4.40;;;4.03;;
12921;SDS011;6528;48.086;16.282;2022-09-03T20:05:58;5.20;;;4.80;;
12921;SDS011;6528;48.086;16.282;2022-09-03T20:08:48;8.73;;;5.93;;
12921;SDS011;6528;48.086;16.282;2022-09-03T20:11:35;5.30;;;4.90;;
12921;SDS011;6528;48.086;16.282;2022-09-03T20:14:07;5.27;;;4.87;;
12921;SDS011;6528;48.086;16.282;2022-09-03T20:19:34;5.10;;;4.00;;
12921;SDS011;6528;48.086;16.282;2022-09-03T20:22:09;3.90;;;3.50;;
12921;SDS011;6528;48.086;16.282;2022-09-03T20:35:59;3.87;;;3.57;;
12921;SDS011;6528;48.086;16.282;2022-09-03T20:38:56;3.97;;;3.67;;
12921;SDS011;6528;48.086;16.282;2022-09-03T20:41:57;3.87;;;3.47;;
12921;SDS011;6528;48.086;16.282;2022-09-03T20:47:06;3.50;;;3.20;;
12921;SDS011;6528;48.086;16.282;2022-09-03T20:53:14;3.33;;;3.03;;
12921;SDS011;6528;48.086;16.282;2022-09-03T20:56:00;3.53;;;3.23;;
12921;SDS011;6528;48.086;16.282;2022-09-03T20:59:01;4.13;;;3.00;;
12921;SDS011;6528;48.086;16.282;2022-09-03T21:01:37;3.60;;;3.40;;
12921;SDS011;6528;48.086;16.282;2022-09-03T21:07:00;3.83;;;3.40;;
12921;SDS011;6528;48.086;16.282;2022-09-03T21:10:04;3.30;;;3.00;;
12921;SDS011;6528;48.086;16.282;2022-09-03T21:25:45;3.87;;;3.47;;
12921;SDS011;6528;48.086;16.282;2022-09-03T21:30:53;3.60;;;3.40;;
12921;SDS011;6528;48.086;16.282;2022-09-03T21:33:39;3.93;;;3.50;;
12921;SDS011;6528;48.086;16.282;2022-09-03T21:36:18;3.90;;;3.60;;
12921;SDS011;6528;48.086;16.282;2022-09-03T21:39:04;4.27;;;3.87;;
12921;SDS011;6528;48.086;16.282;2022-09-03T21:41:37;6.70;;;3.80;;
12921;SDS011;6528;48.086;16.282;2022-09-03T21:44:16;4.70;;;3.67;;
12921;SDS011;6528;48.086;16.282;2022-09-03T21:47:04;4.93;;;4.53;;
12921;SDS011;6528;48.086;16.282;2022-09-03T21:50:18;7.90;;;7.17;;
12921;SDS011;6528;48.086;16.282;2022-09-03T21:52:38;6.67;;;6.07;;
12921;SDS011;6528;48.086;16.282;2022-09-03T21:55:26;5.37;;;4.97;;